Time;durP1;ratioP1;P1;durP2;ratioP2;P2;SDS_P1;SDS_P2;PMS_P1;PMS_P2;Temp;Humidity;BMP_temperature;BMP_pressure;BME280_temperature;BME280_humidity;BME280_pressure;Samples;Min_cycle;Max_cycle;Signal;HPM_P1;HPM_P2
2023/08/09 00:03:17;;;;;;;6.6;2;;;;;;;14;86.26;;;;;
2023/08/09 00:13:18;;;;;;;3.8;1.5;;;;;;;13.77;87.31;;;;;
2023/08/09 00:23:18;;;;;;;3.8;1.5;;;;;;;13.97;86.49;;;;;
2023/08/09 00:34:17;;;;;;;3.8;1.5;;;;;;;14.09;84.54;;;;;
2023/08/09 00:44:17;;;;;;;3.3;1.5;;;;;;;14.08;84.3;;;;;
2023/08/09 00:55:17;;;;;;;3.3;1.5;;;;;;;13.89;85.01;;;;;
2023/08/09 01:05:17;;;;;;;3.3;1.5;;;;;;;14.02;84.39;;;;;
2023/08/09 01:15:17;;;;;;;5;2.1;;;;;;;14.21;83.08;;;;;
2023/08/09 01:26:17;;;;;;;5;2.1;;;;;;;14.21;83.58;;;;;
2023/08/09 01:37:17;;;;;;;5;2.1;;;;;;;14.25;83.64;;;;;
2023/08/09 01:47:17;;;;;;;3.1;1.5;;;;;;;14.26;83.83;;;;;
2023/08/09 01:57:17;;;;;;;3.1;1.5;;;;;;;14.25;84.26;;;;;
2023/08/09 02:07:17;;;;;;;3.1;1.5;;;;;;;14.14;84.74;;;;;
2023/08/09 02:18:17;;;;;;;3.5;1.8;;;;;;;14.14;84.68;;;;;
2023/08/09 02:29:18;;;;;;;3.5;1.8;;;;;;;13.95;85.74;;;;;
2023/08/09 02:40:17;;;;;;;3.5;1.8;;;;;;;13.8;86.34;;;;;
2023/08/09 02:51:17;;;;;;;3.9;1.7;;;;;;;14.01;85.45;;;;;
2023/08/09 03:01:17;;;;;;;3.9;1.7;;;;;;;13.87;86.39;;;;;
2023/08/09 03:12:17;;;;;;;3.8;2.1;;;;;;;13.84;86.47;;;;;
2023/08/09 03:23:17;;;;;;;3.8;2.1;;;;;;;13.93;86.03;;;;;
2023/08/09 03:33:18;;;;;;;3.8;2.1;;;;;;;13.95;85.51;;;;;
2023/08/09 03:43:17;;;;;;;3.9;1.9;;;;;;;13.76;86.16;;;;;
2023/08/09 03:53:17;;;;;;;3.9;1.9;;;;;;;13.81;86.65;;;;;
2023/08/09 04:03:18;;;;;;;3.9;1.9;;;;;;;13.89;86.93;;;;;
2023/08/09 04:14:18;;;;;;;4.3;1.7;;;;;;;14.16;86.31;;;;;
2023/08/09 04:25:18;;;;;;;4.3;1.7;;;;;;;14.33;86.05;;;;;
2023/08/09 04:36:18;;;;;;;4.3;1.7;;;;;;;14.66;85.47;;;;;
2023/08/09 04:47:17;;;;;;;3.7;1.8;;;;;;;14.98;84.93;;;;;
2023/08/09 04:57:17;;;;;;;3.7;1.8;;;;;;;15.02;85.28;;;;;
2023/08/09 05:07:17;;;;;;;3.7;1.8;;;;;;;15.3;85.63;;;;;
2023/08/09 05:17:18;;;;;;;4.2;1.9;;;;;;;15.49;83.12;;;;;
2023/08/09 05:28:17;;;;;;;4.2;1.9;;;;;;;15.77;83.73;;;;;
2023/08/09 05:38:18;;;;;;;4.2;1.9;;;;;;;16.64;79.7;;;;;
2023/08/09 05:48:18;;;;;;;5.3;1.9;;;;;;;17.45;79.31;;;;;
2023/08/09 05:58:18;;;;;;;5.3;1.9;;;;;;;17.77;78.71;;;;;
2023/08/09 06:09:18;;;;;;;5.3;1.9;;;;;;;18.1;77.91;;;;;
2023/08/09 06:19:18;;;;;;;5.7;2.6;;;;;;;18.21;77.66;;;;;
2023/08/09 06:29:18;;;;;;;5.7;2.6;;;;;;;18.39;76.22;;;;;
2023/08/09 06:39:19;;;;;;;5.7;2.6;;;;;;;18.55;73.11;;;;;
2023/08/09 06:50:18;;;;;;;3.7;2;;;;;;;18.8;69.93;;;;;
2023/08/09 07:00:18;;;;;;;3.7;2;;;;;;;19.22;69.68;;;;;
2023/08/09 07:11:18;;;;;;;3.7;2;;;;;;;19.14;67;;;;;
2023/08/09 07:21:18;;;;;;;4.2;2;;;;;;;19.5;68.08;;;;;
2023/08/09 07:32:18;;;;;;;4.2;2;;;;;;;19.72;64.19;;;;;
2023/08/09 07:42:18;;;;;;;4.2;1.6;;;;;;;20.34;64.08;;;;;
2023/08/09 07:52:18;;;;;;;4.2;1.6;;;;;;;20.54;61.96;;;;;
2023/08/09 08:02:18;;;;;;;4.2;1.6;;;;;;;20.6;58.04;;;;;
2023/08/09 08:13:18;;;;;;;2.5;1.5;;;;;;;21.15;59.1;;;;;
2023/08/09 08:24:18;;;;;;;2.5;1.5;;;;;;;21.32;56.13;;;;;
2023/08/09 08:34:18;;;;;;;2.5;1.5;;;;;;;21.62;54.99;;;;;
2023/08/09 08:44:18;;;;;;;3.4;1.5;;;;;;;22.19;55.01;;;;;
2023/08/09 08:55:18;;;;;;;3.4;1.5;;;;;;;22.3;54.91;;;;;
2023/08/09 09:05:18;;;;;;;3.4;1.5;;;;;;;22.25;52.06;;;;;
2023/08/09 09:16:18;;;;;;;3.2;1.4;;;;;;;22.84;53.15;;;;;
2023/08/09 09:26:18;;;;;;;3.2;1.4;;;;;;;22.59;51.49;;;;;
2023/08/09 09:37:18;;;;;;;3.2;1.4;;;;;;;23.32;49.61;;;;;
2023/08/09 09:47:18;;;;;;;3.9;1.5;;;;;;;23.96;51.01;;;;;
2023/08/09 09:58:18;;;;;;;3.9;1.5;;;;;;;23.93;48.96;;;;;
2023/08/09 10:09:18;;;;;;;3.9;1.5;;;;;;;23.9;46.35;;;;;
2023/08/09 10:19:18;;;;;;;4.5;1.7;;;;;;;23.54;47.84;;;;;
2023/08/09 10:29:18;;;;;;;4.5;1.7;;;;;;;23.05;49.33;;;;;
2023/08/09 10:39:18;;;;;;;4.5;1.7;;;;;;;23.16;51.5;;;;;
2023/08/09 10:50:18;;;;;;;3.1;1.3;;;;;;;23.08;50.66;;;;;
2023/08/09 11:00:18;;;;;;;3.1;1.3;;;;;;;22.74;50.77;;;;;
2023/08/09 11:10:18;;;;;;;3.1;1.3;;;;;;;22.87;49.25;;;;;
2023/08/09 11:21:18;;;;;;;3.3;1.3;;;;;;;22.31;51.91;;;;;
2023/08/09 11:31:19;;;;;;;3.3;1.3;;;;;;;22.2;55.61;;;;;
2023/08/09 11:41:21;;;;;;;3.3;1.3;;;;;;;22.38;57.46;;;;;
2023/08/09 11:52:18;;;;;;;5.9;2.1;;;;;;;22.14;56.51;;;;;
2023/08/09 12:02:18;;;;;;;5.9;2.1;;;;;;;21.48;58.02;;;;;
2023/08/09 12:13:19;;;;;;;4.4;2.1;;;;;;;21.24;59.79;;;;;
2023/08/09 12:24:18;;;;;;;4.4;2.1;;;;;;;20.93;61.65;;;;;
2023/08/09 12:35:19;;;;;;;4.4;2.1;;;;;;;20.72;65.14;;;;;
2023/08/09 12:45:18;;;;;;;4.3;2.1;;;;;;;21.39;64.1;;;;;
2023/08/09 12:56:18;;;;;;;4.3;2.1;;;;;;;21.34;65.1;;;;;
2023/08/09 13:06:18;;;;;;;4.3;2.1;;;;;;;21.43;63.44;;;;;
2023/08/09 13:16:18;;;;;;;5;2.3;;;;;;;21.39;64.75;;;;;
2023/08/09 13:27:18;;;;;;;5;2.3;;;;;;;21.52;64.26;;;;;
2023/08/09 13:37:18;;;;;;;5;2.3;;;;;;;21.61;65.53;;;;;
2023/08/09 13:48:18;;;;;;;4.7;2.6;;;;;;;21.41;67.19;;;;;
2023/08/09 13:59:18;;;;;;;4.7;2.6;;;;;;;21.03;63.37;;;;;
2023/08/09 14:09:18;;;;;;;4.7;2.6;;;;;;;20.93;61.76;;;;;
2023/08/09 14:20:19;;;;;;;4.4;1.8;;;;;;;20.81;61.93;;;;;
2023/08/09 14:31:18;;;;;;;4.4;1.8;;;;;;;20.64;62.34;;;;;
2023/08/09 15:12:18;;;;;;;2.5;1.2;;;;;;;19.92;61.77;;;;;
2023/08/09 15:23:18;;;;;;;2;1;;;;;;;20.05;63.06;;;;;
2023/08/09 15:33:19;;;;;;;2;1;;;;;;;20.31;62.24;;;;;
2023/08/09 15:43:19;;;;;;;3.1;1.2;;;;;;;20.62;61.37;;;;;
2023/08/09 15:54:18;;;;;;;3.1;1.2;;;;;;;20.82;61.36;;;;;
2023/08/09 16:05:25;;;;;;;3.1;1.2;;;;;;;21.13;59.25;;;;;
2023/08/09 16:15:18;;;;;;;3.3;1.2;;;;;;;21.65;57.07;;;;;
2023/08/09 16:26:18;;;;;;;3.3;1.2;;;;;;;21.23;58.02;;;;;
2023/08/09 16:37:18;;;;;;;3.3;1.2;;;;;;;20.92;59.09;;;;;
2023/08/09 16:47:18;;;;;;;3.6;1.3;;;;;;;20.98;58.97;;;;;
2023/08/09 16:58:18;;;;;;;3.6;1.3;;;;;;;20.46;60.96;;;;;
2023/08/09 17:09:19;;;;;;;3.6;1.3;;;;;;;19.9;61.52;;;;;
2023/08/09 17:20:18;;;;;;;3.4;1.2;;;;;;;19.38;63.07;;;;;
2023/08/09 17:31:18;;;;;;;3.4;1.2;;;;;;;19.14;64;;;;;
2023/08/09 17:42:18;;;;;;;3.4;1.2;;;;;;;18.73;66.58;;;;;
2023/08/09 17:53:18;;;;;;;2.2;1.1;;;;;;;18.36;67.2;;;;;
2023/08/09 18:03:18;;;;;;;2.2;1.1;;;;;;;18.05;68.29;;;;;
2023/08/09 18:14:18;;;;;;;2.3;1;;;;;;;17.99;69.07;;;;;
2023/08/09 18:24:18;;;;;;;2.3;1;;;;;;;17.78;70.42;;;;;
2023/08/09 18:34:18;;;;;;;2.3;1;;;;;;;17.61;70.58;;;;;
2023/08/09 18:45:18;;;;;;;2.6;1.3;;;;;;;17.37;71.63;;;;;
2023/08/09 18:55:18;;;;;;;2.6;1.3;;;;;;;17.42;71.58;;;;;
2023/08/09 19:05:18;;;;;;;2.6;1.3;;;;;;;17.33;72.31;;;;;
2023/08/09 19:15:18;;;;;;;5.2;1.6;;;;;;;17.11;73.5;;;;;
2023/08/09 19:26:19;;;;;;;5.2;1.6;;;;;;;17.09;73.39;;;;;
2023/08/09 19:36:18;;;;;;;5.2;1.6;;;;;;;17.03;73.93;;;;;
2023/08/09 19:47:18;;;;;;;4.5;1.8;;;;;;;16.86;72.47;;;;;
2023/08/09 19:58:18;;;;;;;4.5;1.8;;;;;;;16.43;74.13;;;;;
2023/08/09 20:08:18;;;;;;;4.5;1.8;;;;;;;16.36;72.32;;;;;
2023/08/09 20:18:21;;;;;;;3.4;1.6;;;;;;;16.09;73.85;;;;;
2023/08/09 20:28:18;;;;;;;3.4;1.6;;;;;;;15.82;75.17;;;;;
2023/08/09 20:38:19;;;;;;;3.4;1.6;;;;;;;15.74;76.78;;;;;
2023/08/09 20:49:18;;;;;;;4.8;2.6;;;;;;;15.63;80.31;;;;;
2023/08/09 20:59:19;;;;;;;4.8;2.6;;;;;;;15.61;81.2;;;;;
2023/08/09 21:10:19;;;;;;;4.8;2.6;;;;;;;15.5;81.66;;;;;
2023/08/09 21:20:19;;;;;;;6.1;3.9;;;;;;;15.56;81.57;;;;;
2023/08/09 21:31:20;;;;;;;6.1;3.9;;;;;;;15.57;81.64;;;;;
2023/08/09 21:42:19;;;;;;;6.1;3.9;;;;;;;15.44;82;;;;;
2023/08/09 21:53:19;;;;;;;8.4;3.9;;;;;;;15.37;82.47;;;;;
2023/08/09 22:03:19;;;;;;;8.4;3.9;;;;;;;15.28;82.94;;;;;
2023/08/09 22:14:19;;;;;;;6.9;3.9;;;;;;;15.15;83.74;;;;;
2023/08/09 22:25:19;;;;;;;6.9;3.9;;;;;;;15.15;84;;;;;
2023/08/09 22:35:19;;;;;;;6.9;3.9;;;;;;;14.98;84.72;;;;;
2023/08/09 22:46:18;;;;;;;9.2;5;;;;;;;15.04;84.58;;;;;
2023/08/09 22:56:19;;;;;;;9.2;5;;;;;;;15.03;84.92;;;;;
2023/08/09 23:06:19;;;;;;;9.2;5;;;;;;;14.92;85.46;;;;;
2023/08/09 23:17:19;;;;;;;8.9;3.9;;;;;;;14.92;85.18;;;;;
2023/08/09 23:27:19;;;;;;;8.9;3.9;;;;;;;14.8;85.5;;;;;
2023/08/09 23:38:19;;;;;;;8.9;3.9;;;;;;;14.47;87.09;;;;;
2023/08/09 23:49:19;;;;;;;6.8;3.7;;;;;;;14.7;86.03;;;;;
2023/08/09 23:59:19;;;;;;;6.8;3.7;;;;;;;14.58;86.32;;;;;
